Time;durP1;ratioP1;P1;durP2;ratioP2;P2;SDS_P1;SDS_P2;PMS_P1;PMS_P2;Temp;Humidity;BMP_temperature;BMP_pressure;BME280_temperature;BME280_humidity;BME280_pressure;Samples;Min_cycle;Max_cycle;Signal;HPM_P1;HPM_P2
2021/12/09 00:26:52;;;;;;;;;;;;;;;2.89;70.88;99102.97;4301939;33;33906;-83
2021/12/09 00:33:10;;;;;;;;;;;;;;;2.77;71.20;99102.06;4334035;33;36688;-83
2021/12/09 01:16:16;;;;;;;;;;;;;;;2.42;72.64;99050.47;4320578;33;33038;-82
2021/12/09 01:38:32;;;;;;;;;;;;;;;;;;;;;
2021/12/09 02:08:13;;;;;;;;;;;;;;;2.23;72.90;98973.19;4317692;33;33568;-83
2021/12/09 02:10:52;;;;;;;;;;;;;;;;;;;;;
2021/12/09 02:13:54;;;;;;;;;;;;;;;;;;;;;
2021/12/09 02:29:47;;;;;;;;;;;;;;;;;;;;;
2021/12/09 02:32:44;;;;;;;;;;;;;;;2.27;72.04;98959.72;4345160;33;36337;-84
2021/12/09 02:58:54;;;;;;;;;;;;;;;1.79;73.92;98946.75;4362124;32;33190;-83
2021/12/09 03:06:42;;;;;;;;;;;;;;;2.01;73.48;98946.84;4375095;32;35732;-82
2021/12/09 03:25:41;;;;;;;;;;;;;;;2.07;73.65;98959.53;4359729;32;35361;-84
2021/12/09 03:29:25;;;;;;;;;;;;;;;2.07;73.66;98951.66;4352638;32;33518;-82
2021/12/09 03:32:00;;;;;;;;;;;;;;;2.47;72.37;98951.22;4347006;32;32663;-84
2021/12/09 03:39:14;;;;;;;;;;;;;;;2.04;74.07;98929.09;4323213;33;35878;-82
2021/12/09 03:42:56;;;;;;;;;;;;;;;2.19;73.26;98932.38;4330028;33;34942;-82
2021/12/09 04:01:54;;;;;;;;;;;;;;;2.18;73.87;98947.28;4326154;32;35738;-83
2021/12/09 04:11:37;;;;;;;;;;;;;;;2.38;72.79;98936.16;4370749;32;36337;-82
2021/12/09 04:15:00;;;;;;;;;;;;;;;2.18;73.64;98935.97;4376125;32;36195;-82
2021/12/09 04:20:52;;;;;;;;;;;;;;;;;;;;;
2021/12/09 04:24:13;;;;;;;;;;;;;;;2.15;74.09;98936.19;4391536;32;33791;-83
2021/12/09 04:30:43;;;;;;;;;;;;;;;;;;;;;
2021/12/09 04:37:01;;;;;;;;;;;;;;;2.58;72.26;98951.25;4309782;33;34080;-83
2021/12/09 04:43:40;;;;;;;;;;;;;;;;;;;;;
2021/12/09 04:46:36;;;;;;;;;;;;;;;2.38;72.58;98920.41;4328603;33;33278;-84
2021/12/09 04:49:27;;;;;;;;;;;;;;;2.53;72.13;98919.25;4317756;33;32940;-84
2021/12/09 04:53:21;;;;;;;;;;;;;;;2.52;72.11;98914.97;4335769;33;35610;-83
2021/12/09 05:06:53;;;;;;;;;;;;;;;;;;;;;
2021/12/09 05:19:53;;;;;;;;;;;;;;;2.91;70.29;98927.66;4366883;32;35265;-83
2021/12/09 05:25:38;;;;;;;;;;;;;;;;;;;;;
2021/12/09 05:29:21;;;;;;;;;;;;;;;;;;;;;
2021/12/09 05:32:21;;;;;;;;;;;;;;;;;;;;;
2021/12/09 05:47:32;;;;;;;;;;;;;;;2.61;70.80;98889.81;4354492;32;36043;-85
2021/12/09 05:54:16;;;;;;;;;;;;;;;2.72;70.49;98863.56;4368118;32;33906;-85
2021/12/09 06:15:01;;;;;;;;;;;;;;;2.59;71.44;98853.16;4345756;32;34288;-85
2021/12/09 06:21:19;;;;;;;;;;;;;;;;;;;;;
2021/12/09 06:24:46;;;;;;;;;;;;;;;2.56;72.09;98840.28;4329687;33;34519;-85
2021/12/09 06:35:43;;;;;;;;;;;;;;;2.43;72.61;98829.03;4312965;33;33348;-84
2021/12/09 06:38:55;;;;;;;;;;;;;;;2.48;72.85;98829.53;4340013;33;34835;-85
2021/12/09 06:45:03;;;;;;;;;;;;;;;;;;;;;
2021/12/09 06:48:24;;;;;;;;;;;;;;;;;;;;;
2021/12/09 06:52:02;;;;;;;;;;;;;;;2.41;72.95;98827.47;4323200;33;34880;-85
2021/12/09 06:55:03;;;;;;;;;;;;;;;2.71;71.97;98833.84;4321464;33;34736;-88
2021/12/09 07:20:50;;;;;;;;;;;;;;;;;;;;;
2021/12/09 07:24:24;;;;;;;;;;;;;;;2.51;71.94;98857.31;4330481;33;35551;-86
2021/12/09 07:30:55;;;;;;;;;;;;;;;2.56;71.58;98836.81;4331625;33;32378;-85
2021/12/09 08:00:54;;;;;;;;;;;;;;;2.28;73.89;98811.00;4358216;32;34909;-87
2021/12/09 08:16:15;;;;;;;;;;;;;;;2.36;74.35;98803.38;4332860;32;35265;-86
2021/12/09 08:28:36;;;;;;;;;;;;;;;2.17;74.63;98809.19;4372374;32;36081;-86
2021/12/09 08:36:08;;;;;;;;;;;;;;;;;;;;;
2021/12/09 08:39:05;;;;;;;;;;;;;;;2.40;74.02;98789.06;4392233;32;32992;-87
2021/12/09 08:42:50;;;;;;;;;;;;;;;2.58;73.56;98774.50;4377622;32;34938;-87
2021/12/09 08:55:56;;;;;;;;;;;;;;;;;;;;;
2021/12/09 08:59:38;;;;;;;;;;;;;;;2.39;74.07;98774.28;4338992;32;33450;-85
2021/12/09 09:02:36;;;;;;;;;;;;;;;;;;;;;
2021/12/09 09:08:56;;;;;;;;;;;;;;;;;;;;;
2021/12/09 09:12:28;;;;;;;;;;;;;;;2.85;72.72;98775.81;4339380;33;34602;-85
2021/12/09 09:25:29;;;;;;;;;;;;;;;;;;;;;
2021/12/09 09:32:15;;;;;;;;;;;;;;;2.53;74.87;98793.25;4389424;32;32786;-87
2021/12/09 09:45:51;;;;;;;;;;;;;;;2.52;75.32;98740.88;4374139;32;34648;-89
2021/12/09 09:53:15;;;;;;;;;;;;;;;2.52;76.11;98719.87;4343592;32;35143;-88
2021/12/09 10:02:53;;;;;;;;;;;;;;;;;;;;;
2021/12/09 10:09:21;;;;;;;;;;;;;;;2.97;74.67;98703.91;4320319;33;32012;-86
2021/12/09 10:15:55;;;;;;;;;;;;;;;3.27;73.65;98696.16;4329522;33;34465;-85
2021/12/09 10:19:40;;;;;;;;;;;;;;;3.29;73.68;98689.84;4305300;33;33849;-84
2021/12/09 10:44:14;;;;;;;;;;;;;;;3.11;73.58;98688.72;4329262;33;37015;-88
2021/12/09 11:11:52;;;;;;;;;;;;;;;3.15;74.83;98687.47;4324055;33;35901;-87
2021/12/09 11:22:39;;;;;;;;;;;;;;;3.05;75.54;98668.19;4332460;33;32730;-88
2021/12/09 11:25:50;;;;;;;;;;;;;;;3.41;74.10;98665.16;4308828;33;33748;-86
2021/12/09 12:55:43;;;;;;;;;;;;;;;3.56;75.23;98626.22;4345327;32;32574;-85
2021/12/09 14:13:14;;;;;;;;;;;;;;;;;;;;;
2021/12/09 14:26:44;;;;;;;;;;;;;;;;;;;;;
2021/12/09 14:40:05;;;;;;;;;;;;;;;;;;;;;
2021/12/09 14:51:05;;;;;;;;;;;;;;;3.40;76.12;98591.69;4401582;32;32752;-84
2021/12/09 14:57:19;;;;;;;;;;;;;;;;;;;;;
2021/12/09 15:00:23;;;;;;;;;;;;;;;3.57;75.35;98580.56;4388805;32;34202;-83
2021/12/09 15:18:13;;;;;;;;;;;;;;;3.95;73.66;98593.91;4377770;32;32552;-85
2021/12/09 15:21:50;;;;;;;;;;;;;;;3.94;73.41;98600.97;4397953;32;35298;-85
2021/12/09 15:40:04;;;;;;;;;;;;;;;4.24;72.20;98605.41;4300824;33;33949;-86
2021/12/09 15:42:50;;;;;;;;;;;;;;;;;;;;;
2021/12/09 15:52:58;;;;;;;;;;;;;;;4.03;73.16;98596.69;4250300;33;33676;-87
2021/12/09 15:56:05;;;;;;;;;;;;;;;;;;;;;
2021/12/09 16:05:49;;;;;;;;;;;;;;;;;;;;;
2021/12/09 16:08:42;;;;;;;;;;;;;;;3.88;74.21;98582.25;4325047;33;33639;-86
2021/12/09 16:12:24;;;;;;;;;;;;;;;4.09;73.21;98581.25;4338277;32;33320;-87
2021/12/09 16:15:36;;;;;;;;;;;;;;;;;;;;;
2021/12/09 16:29:44;;;;;;;;;;;;;;;;;;;;;
2021/12/09 16:32:45;;;;;;;;;;;;;;;4.27;72.49;98584.88;4377148;32;34884;-88
2021/12/09 17:10:26;;;;;;;;;;;;;;;4.62;71.70;98601.03;4342679;32;35886;-86
2021/12/09 17:17:54;;;;;;;;;;;;;;;4.56;72.23;98603.38;4371739;32;32555;-88
2021/12/09 17:37:39;;;;;;;;;;;;;;;;;;;;;
2021/12/09 18:09:24;;;;;;;;;;;;;;;5.31;69.58;98630.75;4285937;33;34241;-88
2021/12/09 18:19:01;;;;;;;;;;;;;;;;;;;;;
2021/12/09 18:29:44;;;;;;;;;;;;;;;5.60;68.36;98640.31;4357745;32;32869;-87
2021/12/09 18:33:05;;;;;;;;;;;;;;;5.71;68.07;98624.31;4306469;33;36141;-87
2021/12/09 18:36:52;;;;;;;;;;;;;;;5.79;67.69;98645.59;4306681;33;33595;-86
2021/12/09 18:42:56;;;;;;;;;;;;;;;5.64;68.28;98652.25;4327030;33;33703;-86
2021/12/09 18:46:10;;;;;;;;;;;;;;;5.73;67.92;98656.66;4318010;33;35431;-86
2021/12/09 18:51:17;;;;;;;;;;;;;;;5.69;67.90;98626.28;4276020;28;20363;-84
2021/12/09 18:53:57;;;;;;;;;;;;;;;5.85;67.39;98626.53;4235752;33;33434;-84
2021/12/09 18:56:45;;;;;;;;;;;;;;;5.83;67.33;98636.41;4248500;33;33902;-84
2021/12/09 18:59:32;;;;;;;;;;;;;;;5.89;67.01;98631.38;4232748;33;34658;-84
2021/12/09 19:02:01;;;;;;;;;;;;;;;5.76;67.37;98641.38;4257892;33;33091;-84
2021/12/09 19:04:51;;;;;;;;;;;;;;;5.18;68.30;98638.94;4240783;33;33651;-85
2021/12/09 19:07:20;;;;;;;;;;;;;;;5.45;67.74;98644.34;4277245;33;35086;-85
2021/12/09 19:09:52;;;;;;;;;;;;;;;4.94;68.76;98643.81;4264868;33;34914;-84
2021/12/09 19:12:25;;;;;;;;;;;;;;;5.20;68.17;98647.53;4303452;33;32648;-84
2021/12/09 19:14:55;;;;;;;;;;;;;;;5.13;68.00;98645.59;4334447;33;33691;-84
2021/12/09 19:17:42;;;;;;;;;;;;;;;5.23;67.72;98655.19;4330513;33;35646;-85
2021/12/09 19:20:19;;;;;;;;;;;;;;;4.77;69.14;98664.69;4358113;32;33124;-85
2021/12/09 19:22:48;;;;;;;;;;;;;;;4.68;69.74;98670.78;4370893;32;31926;-86
2021/12/09 19:25:41;;;;;;;;;;;;;;;4.95;68.95;98673.59;4368830;32;34152;-87
2021/12/09 19:28:21;;;;;;;;;;;;;;;5.14;68.02;98661.28;4367085;32;35239;-86
2021/12/09 19:31:01;;;;;;;;;;;;;;;5.28;67.59;98652.97;4373551;32;33679;-87
2021/12/09 19:33:53;;;;;;;;;;;;;;;5.22;67.70;98634.22;4367593;32;34101;-86
2021/12/09 19:36:49;;;;;;;;;;;;;;;5.29;67.55;98651.16;4374277;32;34531;-86
2021/12/09 19:39:40;;;;;;;;;;;;;;;4.62;69.81;98647.62;4349398;32;34795;-86
2021/12/09 19:42:33;;;;;;;;;;;;;;;4.77;69.40;98646.25;4352307;32;35554;-86
2021/12/09 19:45:21;;;;;;;;;;;;;;;4.80;69.13;98653.91;4374058;32;32378;-86
2021/12/09 19:48:22;;;;;;;;;;;;;;;4.64;69.48;98662.31;4362366;32;33663;-87
2021/12/09 19:51:10;;;;;;;;;;;;;;;4.72;69.27;98659.84;4358692;32;34743;-86
2021/12/09 19:53:51;;;;;;;;;;;;;;;4.53;69.70;98662.41;4350499;32;34578;-86
2021/12/09 19:56:23;;;;;;;;;;;;;;;4.54;69.86;98650.09;4369353;32;31737;-86
2021/12/09 19:59:12;;;;;;;;;;;;;;;4.21;70.88;98638.06;4358049;32;34052;-85
2021/12/09 20:01:56;;;;;;;;;;;;;;;4.48;69.98;98653.25;4347459;32;35274;-85
2021/12/09 20:04:42;;;;;;;;;;;;;;;4.16;70.96;98661.31;4373764;32;33747;-84
2021/12/09 20:07:12;;;;;;;;;;;;;;;4.56;69.90;98664.81;4377611;32;33743;-84
2021/12/09 20:09:41;;;;;;;;;;;;;;;4.36;70.37;98670.13;4353783;32;33630;-85
2021/12/09 20:12:31;;;;;;;;;;;;;;;4.64;69.35;98682.56;4360975;32;34411;-86
2021/12/09 20:15:15;;;;;;;;;;;;;;;4.43;70.40;98680.00;4369127;32;36160;-86
2021/12/09 20:17:51;;;;;;;;;;;;;;;4.41;70.50;98678.44;4371202;32;32880;-86
2021/12/09 20:20:41;;;;;;;;;;;;;;;4.64;69.63;98664.12;4352613;32;34510;-85
2021/12/09 20:23:31;;;;;;;;;;;;;;;4.45;70.50;98670.16;4351600;32;33593;-85
2021/12/09 20:26:07;;;;;;;;;;;;;;;4.66;69.80;98673.56;4364390;32;34979;-86
2021/12/09 20:28:56;;;;;;;;;;;;;;;4.70;69.59;98671.50;4356405;32;32971;-85
2021/12/09 20:31:28;;;;;;;;;;;;;;;4.79;69.24;98673.31;4364087;32;33012;-86
2021/12/09 20:33:58;;;;;;;;;;;;;;;4.75;69.39;98658.75;4356698;32;35347;-86
2021/12/09 20:36:48;;;;;;;;;;;;;;;4.60;69.79;98657.44;4364036;32;33826;-86
2021/12/09 20:39:20;;;;;;;;;;;;;;;4.80;69.07;98664.44;4374431;32;32084;-85
2021/12/09 20:41:56;;;;;;;;;;;;;;;4.94;68.69;98664.03;4354273;32;34979;-85
2021/12/09 20:44:26;;;;;;;;;;;;;;;4.99;68.48;98673.19;4357134;32;33685;-86
2021/12/09 20:47:10;;;;;;;;;;;;;;;5.14;67.90;98678.91;4356739;32;34749;-86
2021/12/09 20:50:00;;;;;;;;;;;;;;;5.22;67.62;98685.16;4362765;32;34098;-85
2021/12/09 20:52:41;;;;;;;;;;;;;;;4.73;68.95;98695.75;4373419;32;34467;-85
2021/12/09 20:55:29;;;;;;;;;;;;;;;5.07;67.71;98680.44;4371706;32;35376;-86
2021/12/09 20:58:28;;;;;;;;;;;;;;;4.52;69.67;98686.28;4353736;32;35323;-85
2021/12/09 21:00:59;;;;;;;;;;;;;;;4.75;68.90;98680.66;4361402;32;33377;-86
2021/12/09 21:03:39;;;;;;;;;;;;;;;4.45;69.69;98687.75;4344575;32;34694;-85
2021/12/09 21:06:30;;;;;;;;;;;;;;;4.45;69.82;98693.03;4357682;32;36426;-85
2021/12/09 21:09:17;;;;;;;;;;;;;;;4.44;69.88;98689.56;4362123;32;33291;-85
2021/12/09 21:12:05;;;;;;;;;;;;;;;4.41;70.06;98704.78;4371994;32;33114;-84
2021/12/09 21:14:50;;;;;;;;;;;;;;;4.47;69.99;98727.97;4375012;32;32518;-83
2021/12/09 21:17:39;;;;;;;;;;;;;;;4.44;69.96;98726.41;4371658;32;34190;-85
2021/12/09 21:20:26;;;;;;;;;;;;;;;4.28;70.63;98714.72;4375197;32;35710;-85
2021/12/09 21:23:14;;;;;;;;;;;;;;;4.11;71.57;98703.00;4360981;32;34027;-85
2021/12/09 21:26:02;;;;;;;;;;;;;;;4.12;71.69;98715.19;4354748;32;34223;-86
2021/12/09 21:28:50;;;;;;;;;;;;;;;4.13;71.40;98706.31;4354827;32;35088;-85
2021/12/09 21:31:39;;;;;;;;;;;;;;;3.98;71.74;98691.00;4349908;32;33632;-85
2021/12/09 21:34:29;;;;;;;;;;;;;;;3.99;72.19;98706.66;4364968;32;33292;-83
2021/12/09 21:37:10;;;;;;;;;;;;;;;4.16;71.73;98711.31;4382507;32;34887;-83
2021/12/09 21:39:49;;;;;;;;;;;;;;;4.21;71.61;98708.28;4359574;32;35138;-83
2021/12/09 21:42:20;;;;;;;;;;;;;;;4.28;71.25;98710.28;4366853;32;34674;-83
2021/12/09 21:44:58;;;;;;;;;;;;;;;4.26;71.18;98703.47;4343289;32;33986;-84
2021/12/09 21:47:28;;;;;;;;;;;;;;;4.56;70.26;98701.69;4372145;32;33207;-83
2021/12/09 21:50:16;;;;;;;;;;;;;;;4.18;71.29;98705.94;4345881;32;34878;-83
2021/12/09 21:52:46;;;;;;;;;;;;;;;4.18;71.33;98722.56;4386362;32;34471;-84
2021/12/09 21:55:33;;;;;;;;;;;;;;;4.01;71.75;98725.78;4385153;32;33370;-84
2021/12/09 21:58:21;;;;;;;;;;;;;;;4.39;70.63;98733.91;4365275;32;34046;-84
2021/12/09 22:00:58;;;;;;;;;;;;;;;4.16;70.98;98740.28;4373002;32;36003;-84
2021/12/09 22:03:48;;;;;;;;;;;;;;;3.79;72.75;98748.75;4364845;32;33062;-84
2021/12/09 22:06:32;;;;;;;;;;;;;;;3.95;72.14;98747.34;4376104;32;32955;-84
2021/12/09 22:09:21;;;;;;;;;;;;;;;4.10;71.74;98735.53;4362026;32;33029;-85
2021/12/09 22:12:15;;;;;;;;;;;;;;;4.09;71.71;98746.19;4370488;32;36084;-84
2021/12/09 22:15:08;;;;;;;;;;;;;;;4.13;71.56;98737.06;4375966;32;34456;-84
2021/12/09 22:17:56;;;;;;;;;;;;;;;4.02;71.83;98753.78;4386671;32;33873;-85
2021/12/09 22:20:46;;;;;;;;;;;;;;;3.86;72.50;98755.19;4386318;32;34880;-83
2021/12/09 22:23:13;;;;;;;;;;;;;;;3.98;72.12;98752.34;4363178;32;34034;-85
2021/12/09 22:26:01;;;;;;;;;;;;;;;3.96;72.20;98753.47;4366077;32;34968;-84
2021/12/09 22:28:49;;;;;;;;;;;;;;;3.84;72.84;98757.09;4366907;32;32268;-83
2021/12/09 22:31:19;;;;;;;;;;;;;;;3.67;73.44;98762.91;4379392;32;33955;-85
2021/12/09 22:34:04;;;;;;;;;;;;;;;3.21;75.41;98763.22;4349625;32;35486;-84
2021/12/09 22:36:51;;;;;;;;;;;;;;;3.15;75.01;98757.63;4359425;32;34561;-84
2021/12/09 22:39:39;;;;;;;;;;;;;;;3.37;74.85;98749.66;4358732;32;31754;-84
2021/12/09 22:42:16;;;;;;;;;;;;;;;3.46;74.51;98748.91;4362236;32;34852;-84
2021/12/09 22:44:45;;;;;;;;;;;;;;;3.74;73.42;98736.00;4364786;32;34343;-84
2021/12/09 22:47:19;;;;;;;;;;;;;;;3.68;73.42;98728.59;4343875;32;33312;-84
2021/12/09 22:49:53;;;;;;;;;;;;;;;4.00;72.56;98739.06;4373390;32;31891;-85
2021/12/09 22:52:54;;;;;;;;;;;;;;;3.98;72.44;98730.47;4364381;32;34207;-84
2021/12/09 22:55:45;;;;;;;;;;;;;;;4.23;71.59;98730.91;4367506;32;34417;-84
2021/12/09 22:58:15;;;;;;;;;;;;;;;3.92;72.46;98736.25;4352946;32;35176;-84
2021/12/09 23:00:43;;;;;;;;;;;;;;;3.95;72.09;98739.47;4388774;32;33074;-84
2021/12/09 23:03:30;;;;;;;;;;;;;;;4.04;72.14;98745.72;4376940;32;33452;-84
2021/12/09 23:06:07;;;;;;;;;;;;;;;4.04;71.95;98753.63;4378060;32;35040;-85
2021/12/09 23:08:58;;;;;;;;;;;;;;;3.86;72.17;98750.75;4359151;32;34840;-83
2021/12/09 23:11:44;;;;;;;;;;;;;;;4.04;71.68;98745.72;4365381;32;31798;-84
2021/12/09 23:14:36;;;;;;;;;;;;;;;4.05;71.54;98739.53;4368641;32;32780;-83
2021/12/09 23:37:04;;;;;;;;;;;;;;;3.81;72.32;98767.88;4328955;27;33582;-88
2021/12/09 23:39:32;;;;;;;;;;;;;;;3.55;73.58;98777.91;4335165;33;32966;-87
2021/12/09 23:42:02;;;;;;;;;;;;;;;4.01;71.68;98767.03;4333884;33;34837;-87
2021/12/09 23:44:29;;;;;;;;;;;;;;;3.64;72.26;98768.44;4334416;33;34971;-87
2021/12/09 23:47:00;;;;;;;;;;;;;;;4.17;71.03;98778.78;4335215;33;33180;-86
2021/12/09 23:49:35;;;;;;;;;;;;;;;4.09;70.88;98783.88;4335042;33;32991;-86
2021/12/09 23:52:04;;;;;;;;;;;;;;;4.13;71.00;98782.66;4335129;33;35673;-87
2021/12/09 23:54:32;;;;;;;;;;;;;;;4.46;70.07;98765.78;4332721;33;34520;-87
2021/12/09 23:57:00;;;;;;;;;;;;;;;4.48;69.69;98755.97;4330746;32;33349;-87
2021/12/09 23:59:30;;;;;;;;;;;;;;;4.26;70.36;98756.94;4335334;32;34213;-86
